EDT,Max TemperatureF,Mean TemperatureF,Min TemperatureF,Max Dew PointF,MeanDew PointF,Min DewpointF,Max Humidity, Mean Humidity, Min Humidity, Max Sea Level PressureIn, Mean Sea Level PressureIn, Min Sea Level PressureIn, Max VisibilityMiles, Mean VisibilityMiles, Min VisibilityMiles, Max Wind SpeedMPH, Mean Wind SpeedMPH, Max Gust SpeedMPH,PrecipitationIn, CloudCover, Events, WindDirDegrees
2013-8-1,76,72,68,68,65,62,97,83,69,30.03,29.93,29.83,10,9,4,16,8,24,0.22,6,Rain,173
2013-8-2,84,77,69,68,65,59,97,72,46,29.90,29.84,29.78,10,10,4,20,8,26,0.08,6,Rain,253
2013-8-3,79,74,68,68,64,61,90,76,62,29.90,29.87,29.83,10,10,10,17,7,21,0.01,5,Rain,240
2013-8-4,82,73,64,64,57,52,93,65,36,29.93,29.86,29.82,10,10,10,22,8,28,0.00,3,,330
2013-8-5,77,68,59,57,50,42,78,56,33,30.04,30.00,29.94,10,10,10,20,9,26,0.00,3,,311
2013-8-6,78,69,59,62,57,53,93,70,47,30.13,30.09,30.03,10,10,10,17,6,22,0.00,2,,168
2013-8-7,78,70,61,66,61,55,84,69,54,30.15,30.12,30.09,10,10,10,18,9,22,0.00,7,,149
2013-8-8,79,74,69,71,68,63,93,83,73,30.08,30.05,30.02,10,9,4,18,11,23,0.24,8,Rain-Thunderstorm,185
2013-8-9,83,79,74,73,72,71,93,84,74,30.03,29.89,29.80,10,9,2,24,12,32,0.01,7,Rain-Thunderstorm,201
2013-8-10,84,76,68,72,61,57,87,65,43,30.03,29.94,29.83,10,10,9,17,8,24,0.00,4,,306
2013-8-11,81,71,60,62,54,46,73,53,32,30.10,30.06,30.03,10,10,10,13,7,17,0.00,4,,303
2013-8-12,77,72,68,70,67,63,93,81,69,30.03,29.98,29.93,10,8,1,7,3,,0.48,6,Rain,215
2013-8-13,76,72,67,72,68,64,97,83,69,29.85,29.75,29.69,10,6,2,14,4,17,0.91,7,Rain-Thunderstorm,114
2013-8-14,76,68,59,66,55,47,93,67,41,30.02,29.82,29.72,10,10,2,23,10,30,0.00,3,Rain,316
2013-8-15,78,67,56,58,51,43,86,59,31,30.14,30.09,30.03,10,10,10,14,6,18,0.00,3,,259
2013-8-16,78,68,57,61,54,49,93,65,36,30.20,30.15,30.12,10,10,10,12,4,16,0.00,4,,196
2013-8-17,82,71,59,60,57,54,93,66,39,30.26,30.24,30.20,10,10,10,12,4,14,0.00,4,,208
2013-8-18,77,69,61,60,58,55,84,69,54,30.25,30.19,30.12,10,10,10,9,4,13,0.01,6,Rain,82
2013-8-19,81,71,61,63,59,54,84,66,48,30.11,30.06,30.02,10,10,10,13,6,17,T,5,,255
2013-8-20,87,75,62,67,62,58,93,65,37,30.12,30.08,30.03,10,10,5,15,6,18,0.00,1,,249
2013-8-21,88,77,66,70,65,57,93,65,37,30.16,30.11,30.05,10,9,3,15,6,20,0.00,2,,227
2013-8-22,81,76,71,72,70,67,93,84,74,30.05,29.97,29.86,10,8,0,17,7,22,0.55,6,Fog-Rain-Thunderstorm,203
2013-8-23,82,74,65,69,61,56,100,71,42,30.09,29.95,29.85,10,10,5,16,7,23,0.00,5,,343
2013-8-24,78,69,59,62,55,52,87,65,43,30.34,30.25,30.11,10,10,10,16,7,20,0.00,3,,30
2013-8-25,81,69,56,60,56,49,93,64,35,30.38,30.31,30.23,10,10,10,15,6,20,0.00,3,,224
2013-8-26,79,74,68,69,62,55,93,76,58,30.22,30.07,29.92,10,10,10,18,9,23,0.09,6,Rain,230
2013-8-27,85,78,70,70,68,67,97,78,58,29.90,29.84,29.80,10,8,2,18,8,26,0.12,7,Rain,310
2013-8-28,86,77,67,70,68,65,93,74,55,29.88,29.86,29.84,10,9,4,13,3,15,0.00,4,,151
2013-8-29,79,73,66,70,65,61,93,74,54,30.03,29.97,29.88,10,9,4,16,8,22,T,7,,69
2013-8-30,79,72,65,69,65,60,87,77,67,30.02,29.95,29.86,10,10,10,17,8,21,0.00,7,,196
2013-8-31,81,76,71,72,69,68,93,84,74,29.87,29.84,29.81,10,10,10,18,11,26,0.00,5,,218